sensor_id;sensor_type;location;lat;lon;timestamp;pressure;altitude;pressure_sealevel;temperature
71640;BMP280;60912;48.968;10.124;2023-05-29T00:01:09;96708.84;;;13.63
71640;BMP280;60912;48.968;10.124;2023-05-29T00:03:34;96697.59;;;13.61
71640;BMP280;60912;48.968;10.124;2023-05-29T00:06:04;96701.66;;;13.60
71640;BMP280;60912;48.968;10.124;2023-05-29T00:08:31;96705.16;;;13.60
71640;BMP280;60912;48.968;10.124;2023-05-29T00:10:56;96710.47;;;13.66
71640;BMP280;60912;48.968;10.124;2023-05-29T00:13:21;96708.22;;;13.72
71640;BMP280;60912;48.968;10.124;2023-05-29T00:15:47;96706.25;;;13.65
71640;BMP280;60912;48.968;10.124;2023-05-29T00:18:12;96699.13;;;13.47
71640;BMP280;60912;48.968;10.124;2023-05-29T00:20:37;96701.25;;;13.23
71640;BMP280;60912;48.968;10.124;2023-05-29T00:23:03;96710.47;;;13.26
71640;BMP280;60912;48.968;10.124;2023-05-29T00:25:31;96705.31;;;13.22
71640;BMP280;60912;48.968;10.124;2023-05-29T00:27:57;96699.25;;;13.24
71640;BMP280;60912;48.968;10.124;2023-05-29T00:30:22;96699.03;;;13.22
71640;BMP280;60912;48.968;10.124;2023-05-29T00:32:47;96695.53;;;13.21
71640;BMP280;60912;48.968;10.124;2023-05-29T00:35:13;96699.56;;;13.28
71640;BMP280;60912;48.968;10.124;2023-05-29T00:37:38;96697.22;;;13.24
71640;BMP280;60912;48.968;10.124;2023-05-29T00:40:04;96697.72;;;13.30
71640;BMP280;60912;48.968;10.124;2023-05-29T00:42:29;96690.56;;;13.20
71640;BMP280;60912;48.968;10.124;2023-05-29T00:44:55;96690.19;;;13.16
71640;BMP280;60912;48.968;10.124;2023-05-29T00:47:20;96692.06;;;13.13
71640;BMP280;60912;48.968;10.124;2023-05-29T00:49:46;96691.91;;;13.11
71640;BMP280;60912;48.968;10.124;2023-05-29T00:52:12;96694.09;;;13.13
71640;BMP280;60912;48.968;10.124;2023-05-29T00:54:37;96689.31;;;13.06
71640;BMP280;60912;48.968;10.124;2023-05-29T00:57:04;96696.75;;;12.88
71640;BMP280;60912;48.968;10.124;2023-05-29T00:59:32;96687.16;;;12.81
71640;BMP280;60912;48.968;10.124;2023-05-29T01:01:59;96689.41;;;12.75
71640;BMP280;60912;48.968;10.124;2023-05-29T01:04:26;96700.47;;;12.75
71640;BMP280;60912;48.968;10.124;2023-05-29T01:06:51;96691.59;;;12.54
71640;BMP280;60912;48.968;10.124;2023-05-29T01:09:17;96694.38;;;12.54
71640;BMP280;60912;48.968;10.124;2023-05-29T01:14:09;96690.34;;;12.63
71640;BMP280;60912;48.968;10.124;2023-05-29T01:17:24;96689.41;;;12.60
71640;BMP280;60912;48.968;10.124;2023-05-29T01:27:48;96684.25;;;12.57
71640;BMP280;60912;48.968;10.124;2023-05-29T01:30:15;96680.00;;;12.56
71640;BMP280;60912;48.968;10.124;2023-05-29T01:32:41;96673.56;;;12.38
71640;BMP280;60912;48.968;10.124;2023-05-29T01:35:07;96676.50;;;12.40
71640;BMP280;60912;48.968;10.124;2023-05-29T01:37:32;96675.78;;;12.24
71640;BMP280;60912;48.968;10.124;2023-05-29T01:39:58;96671.53;;;12.16
71640;BMP280;60912;48.968;10.124;2023-05-29T01:42:26;96673.59;;;12.23
71640;BMP280;60912;48.968;10.124;2023-05-29T01:44:52;96679.09;;;12.30
71640;BMP280;60912;48.968;10.124;2023-05-29T01:47:18;96679.84;;;12.23
71640;BMP280;60912;48.968;10.124;2023-05-29T01:49:43;96674.50;;;12.33
71640;BMP280;60912;48.968;10.124;2023-05-29T01:52:09;96682.03;;;12.40
71640;BMP280;60912;48.968;10.124;2023-05-29T01:54:35;96675.41;;;12.20
71640;BMP280;60912;48.968;10.124;2023-05-29T01:57:01;96675.94;;;12.19
71640;BMP280;60912;48.968;10.124;2023-05-29T01:59:27;96673.59;;;12.23
71640;BMP280;60912;48.968;10.124;2023-05-29T02:01:53;96673.19;;;12.19
71640;BMP280;60912;48.968;10.124;2023-05-29T02:04:18;96682.75;;;12.18
71640;BMP280;60912;48.968;10.124;2023-05-29T02:06:44;96677.63;;;12.22
71640;BMP280;60912;48.968;10.124;2023-05-29T02:09:10;96674.88;;;12.22
71640;BMP280;60912;48.968;10.124;2023-05-29T02:11:35;96677.81;;;12.16
71640;BMP280;60912;48.968;10.124;2023-05-29T02:14:01;96676.69;;;12.19
71640;BMP280;60912;48.968;10.124;2023-05-29T02:16:28;96677.44;;;12.20
71640;BMP280;60912;48.968;10.124;2023-05-29T02:18:53;96677.06;;;12.08
71640;BMP280;60912;48.968;10.124;2023-05-29T02:21:18;96676.13;;;12.06
71640;BMP280;60912;48.968;10.124;2023-05-29T02:23:44;96666.91;;;11.95
71640;BMP280;60912;48.968;10.124;2023-05-29T02:26:09;96679.44;;;11.96
71640;BMP280;60912;48.968;10.124;2023-05-29T02:28:35;96673.00;;;11.94
71640;BMP280;60912;48.968;10.124;2023-05-29T02:31:02;96668.00;;;11.85
71640;BMP280;60912;48.968;10.124;2023-05-29T02:33:27;96675.75;;;11.86
71640;BMP280;60912;48.968;10.124;2023-05-29T02:35:52;96673.34;;;11.90
71640;BMP280;60912;48.968;10.124;2023-05-29T02:38:18;96681.44;;;11.88
71640;BMP280;60912;48.968;10.124;2023-05-29T02:40:44;96678.28;;;11.69
71640;BMP280;60912;48.968;10.124;2023-05-29T02:43:12;96688.56;;;11.61
71640;BMP280;60912;48.968;10.124;2023-05-29T02:45:38;96677.47;;;11.46
71640;BMP280;60912;48.968;10.124;2023-05-29T02:48:03;96684.59;;;11.34
71640;BMP280;60912;48.968;10.124;2023-05-29T02:50:28;96678.34;;;11.41
71640;BMP280;60912;48.968;10.124;2023-05-29T02:52:54;96676.72;;;11.45
71640;BMP280;60912;48.968;10.124;2023-05-29T02:55:19;96680.97;;;11.54
71640;BMP280;60912;48.968;10.124;2023-05-29T02:57:45;96681.19;;;11.56
71640;BMP280;60912;48.968;10.124;2023-05-29T03:00:11;96677.31;;;11.59
71640;BMP280;60912;48.968;10.124;2023-05-29T03:02:36;96682.69;;;11.65
71640;BMP280;60912;48.968;10.124;2023-05-29T03:05:02;96673.50;;;11.70
71640;BMP280;60912;48.968;10.124;2023-05-29T03:07:28;96677.31;;;11.67
71640;BMP280;60912;48.968;10.124;2023-05-29T03:09:54;96675.66;;;11.48
71640;BMP280;60912;48.968;10.124;2023-05-29T03:12:20;96675.16;;;11.22
71640;BMP280;60912;48.968;10.124;2023-05-29T03:14:46;96678.44;;;11.13
71640;BMP280;60912;48.968;10.124;2023-05-29T03:17:12;96669.09;;;11.23
71640;BMP280;60912;48.968;10.124;2023-05-29T03:19:37;96671.34;;;11.40
71640;BMP280;60912;48.968;10.124;2023-05-29T03:22:04;96677.88;;;11.50
71640;BMP280;60912;48.968;10.124;2023-05-29T03:24:29;96673.75;;;11.36
71640;BMP280;60912;48.968;10.124;2023-05-29T03:26:54;96672.97;;;11.28
71640;BMP280;60912;48.968;10.124;2023-05-29T03:29:21;96677.31;;;11.16
71640;BMP280;60912;48.968;10.124;2023-05-29T03:31:49;96673.16;;;11.30
71640;BMP280;60912;48.968;10.124;2023-05-29T03:34:14;96665.66;;;11.38
71640;BMP280;60912;48.968;10.124;2023-05-29T03:36:39;96670.47;;;11.45
71640;BMP280;60912;48.968;10.124;2023-05-29T03:39:05;96664.94;;;11.37
71640;BMP280;60912;48.968;10.124;2023-05-29T03:41:31;96669.53;;;11.35
71640;BMP280;60912;48.968;10.124;2023-05-29T03:43:56;96664.06;;;11.50
71640;BMP280;60912;48.968;10.124;2023-05-29T03:46:22;96664.66;;;11.71
71640;BMP280;60912;48.968;10.124;2023-05-29T03:48:47;96669.09;;;11.89
71640;BMP280;60912;48.968;10.124;2023-05-29T03:51:13;96664.72;;;12.17
71640;BMP280;60912;48.968;10.124;2023-05-29T03:53:38;96673.75;;;12.63
71640;BMP280;60912;48.968;10.124;2023-05-29T03:56:03;96669.16;;;13.20
71640;BMP280;60912;48.968;10.124;2023-05-29T03:58:29;96669.03;;;13.51
71640;BMP280;60912;48.968;10.124;2023-05-29T04:00:54;96671.03;;;13.82
71640;BMP280;60912;48.968;10.124;2023-05-29T04:03:20;96673.03;;;14.56
71640;BMP280;60912;48.968;10.124;2023-05-29T04:05:45;96682.31;;;15.64
71640;BMP280;60912;48.968;10.124;2023-05-29T04:08:11;96671.06;;;16.54
71640;BMP280;60912;48.968;10.124;2023-05-29T04:10:38;96674.28;;;17.27
71640;BMP280;60912;48.968;10.124;2023-05-29T04:13:04;96673.03;;;17.90
71640;BMP280;60912;48.968;10.124;2023-05-29T04:15:31;96685.06;;;18.23
71640;BMP280;60912;48.968;10.124;2023-05-29T04:17:58;96686.22;;;19.05
71640;BMP280;60912;48.968;10.124;2023-05-29T04:20:23;96682.91;;;20.11
71640;BMP280;60912;48.968;10.124;2023-05-29T04:22:49;96688.34;;;21.31
71640;BMP280;60912;48.968;10.124;2023-05-29T04:25:14;96688.50;;;22.01
71640;BMP280;60912;48.968;10.124;2023-05-29T04:27:40;96692.38;;;22.35
71640;BMP280;60912;48.968;10.124;2023-05-29T04:30:08;96700.88;;;22.80
71640;BMP280;60912;48.968;10.124;2023-05-29T04:32:33;96698.25;;;23.76
71640;BMP280;60912;48.968;10.124;2023-05-29T04:34:59;96695.63;;;24.99
71640;BMP280;60912;48.968;10.124;2023-05-29T04:37:29;96705.69;;;25.41
71640;BMP280;60912;48.968;10.124;2023-05-29T04:39:58;96702.50;;;25.71
71640;BMP280;60912;48.968;10.124;2023-05-29T04:42:23;96712.34;;;26.96
71640;BMP280;60912;48.968;10.124;2023-05-29T04:44:53;96703.44;;;27.80
71640;BMP280;60912;48.968;10.124;2023-05-29T04:47:19;96706.50;;;28.74
71640;BMP280;60912;48.968;10.124;2023-05-29T04:49:45;96706.81;;;28.58
71640;BMP280;60912;48.968;10.124;2023-05-29T04:52:15;96704.31;;;28.72
71640;BMP280;60912;48.968;10.124;2023-05-29T04:54:40;96708.28;;;29.98
71640;BMP280;60912;48.968;10.124;2023-05-29T04:57:06;96711.84;;;30.42
71640;BMP280;60912;48.968;10.124;2023-05-29T04:59:31;96714.00;;;30.00
71640;BMP280;60912;48.968;10.124;2023-05-29T05:01:56;96716.03;;;29.56
71640;BMP280;60912;48.968;10.124;2023-05-29T05:04:22;96711.44;;;30.60
71640;BMP280;60912;48.968;10.124;2023-05-29T05:06:47;96721.53;;;30.69
71640;BMP280;60912;48.968;10.124;2023-05-29T05:09:12;96725.19;;;30.32
71640;BMP280;60912;48.968;10.124;2023-05-29T05:11:38;96725.56;;;30.54
71640;BMP280;60912;48.968;10.124;2023-05-29T05:14:03;96731.59;;;31.30
71640;BMP280;60912;48.968;10.124;2023-05-29T05:16:28;96723.03;;;31.92
71640;BMP280;60912;48.968;10.124;2023-05-29T05:18:54;96724.78;;;32.29
71640;BMP280;60912;48.968;10.124;2023-05-29T05:21:19;96726.88;;;32.24
71640;BMP280;60912;48.968;10.124;2023-05-29T05:23:45;96740.63;;;31.70
71640;BMP280;60912;48.968;10.124;2023-05-29T05:26:11;96727.47;;;31.43
71640;BMP280;60912;48.968;10.124;2023-05-29T05:28:36;96732.84;;;31.15
71640;BMP280;60912;48.968;10.124;2023-05-29T05:31:01;96728.88;;;31.38
71640;BMP280;60912;48.968;10.124;2023-05-29T05:33:28;96735.25;;;30.37
71640;BMP280;60912;48.968;10.124;2023-05-29T05:35:53;96730.53;;;29.72
71640;BMP280;60912;48.968;10.124;2023-05-29T05:38:18;96732.69;;;30.11
71640;BMP280;60912;48.968;10.124;2023-05-29T05:40:44;96738.34;;;30.11
71640;BMP280;60912;48.968;10.124;2023-05-29T05:43:10;96743.25;;;30.07
71640;BMP280;60912;48.968;10.124;2023-05-29T05:45:35;96740.41;;;29.69
71640;BMP280;60912;48.968;10.124;2023-05-29T05:48:03;96740.56;;;30.17
71640;BMP280;60912;48.968;10.124;2023-05-29T05:50:28;96745.34;;;29.66
71640;BMP280;60912;48.968;10.124;2023-05-29T05:52:54;96750.03;;;28.86
71640;BMP280;60912;48.968;10.124;2023-05-29T05:55:19;96757.72;;;27.71
71640;BMP280;60912;48.968;10.124;2023-05-29T05:57:47;96759.91;;;25.97
71640;BMP280;60912;48.968;10.124;2023-05-29T06:00:13;96760.06;;;25.62
71640;BMP280;60912;48.968;10.124;2023-05-29T06:02:39;96753.78;;;26.02
71640;BMP280;60912;48.968;10.124;2023-05-29T06:05:08;96762.59;;;26.32
71640;BMP280;60912;48.968;10.124;2023-05-29T06:07:35;96770.69;;;26.85
71640;BMP280;60912;48.968;10.124;2023-05-29T06:10:01;96767.97;;;26.89
71640;BMP280;60912;48.968;10.124;2023-05-29T06:12:26;96771.34;;;26.62
71640;BMP280;60912;48.968;10.124;2023-05-29T06:14:52;96766.09;;;27.19
71640;BMP280;60912;48.968;10.124;2023-05-29T06:17:18;96768.16;;;27.64
71640;BMP280;60912;48.968;10.124;2023-05-29T06:19:43;96769.41;;;27.12
71640;BMP280;60912;48.968;10.124;2023-05-29T06:22:08;96769.28;;;27.08
71640;BMP280;60912;48.968;10.124;2023-05-29T06:24:34;96769.47;;;27.38
71640;BMP280;60912;48.968;10.124;2023-05-29T06:26:59;96773.84;;;27.19
71640;BMP280;60912;48.968;10.124;2023-05-29T06:29:24;96773.28;;;27.46
71640;BMP280;60912;48.968;10.124;2023-05-29T06:31:50;96781.19;;;27.28
71640;BMP280;60912;48.968;10.124;2023-05-29T06:34:15;96785.13;;;26.52
71640;BMP280;60912;48.968;10.124;2023-05-29T06:36:41;96789.22;;;26.47
71640;BMP280;60912;48.968;10.124;2023-05-29T06:39:07;96789.31;;;26.71
71640;BMP280;60912;48.968;10.124;2023-05-29T06:41:32;96790.44;;;26.83
71640;BMP280;60912;48.968;10.124;2023-05-29T06:43:58;96788.78;;;26.98
71640;BMP280;60912;48.968;10.124;2023-05-29T06:46:23;96788.75;;;26.54
71640;BMP280;60912;48.968;10.124;2023-05-29T06:48:48;96798.09;;;26.59
71640;BMP280;60912;48.968;10.124;2023-05-29T06:51:15;96796.31;;;26.48
71640;BMP280;60912;48.968;10.124;2023-05-29T06:53:44;96801.13;;;26.04
71640;BMP280;60912;48.968;10.124;2023-05-29T06:56:10;96798.78;;;25.59
71640;BMP280;60912;48.968;10.124;2023-05-29T06:58:35;96802.84;;;24.83
71640;BMP280;60912;48.968;10.124;2023-05-29T07:01:01;96805.34;;;24.27
71640;BMP280;60912;48.968;10.124;2023-05-29T07:03:27;96801.91;;;24.28
71640;BMP280;60912;48.968;10.124;2023-05-29T07:05:52;96789.34;;;24.31
71640;BMP280;60912;48.968;10.124;2023-05-29T07:08:18;96799.38;;;24.52
71640;BMP280;60912;48.968;10.124;2023-05-29T07:10:43;96797.03;;;24.79
71640;BMP280;60912;48.968;10.124;2023-05-29T07:13:09;96802.59;;;25.30
71640;BMP280;60912;48.968;10.124;2023-05-29T07:15:36;96807.50;;;24.77
71640;BMP280;60912;48.968;10.124;2023-05-29T07:18:02;96808.44;;;24.33
71640;BMP280;60912;48.968;10.124;2023-05-29T07:20:27;96808.78;;;24.41
71640;BMP280;60912;48.968;10.124;2023-05-29T07:22:53;96807.19;;;24.04
71640;BMP280;60912;48.968;10.124;2023-05-29T07:25:18;96803.66;;;24.04
71640;BMP280;60912;48.968;10.124;2023-05-29T07:27:43;96806.56;;;24.21
71640;BMP280;60912;48.968;10.124;2023-05-29T07:30:09;96800.75;;;24.51
71640;BMP280;60912;48.968;10.124;2023-05-29T07:32:35;96806.66;;;25.25
71640;BMP280;60912;48.968;10.124;2023-05-29T07:35:00;96805.47;;;25.50
71640;BMP280;60912;48.968;10.124;2023-05-29T07:37:26;96813.81;;;25.11
71640;BMP280;60912;48.968;10.124;2023-05-29T07:39:51;96807.28;;;25.06
71640;BMP280;60912;48.968;10.124;2023-05-29T07:42:16;96810.38;;;25.12
71640;BMP280;60912;48.968;10.124;2023-05-29T07:44:42;96806.38;;;25.37
71640;BMP280;60912;48.968;10.124;2023-05-29T07:47:09;96815.28;;;24.78
71640;BMP280;60912;48.968;10.124;2023-05-29T07:49:34;96817.66;;;24.84
71640;BMP280;60912;48.968;10.124;2023-05-29T07:52:01;96812.78;;;24.69
71640;BMP280;60912;48.968;10.124;2023-05-29T07:54:27;96813.56;;;24.87
71640;BMP280;60912;48.968;10.124;2023-05-29T07:56:52;96820.31;;;24.80
71640;BMP280;60912;48.968;10.124;2023-05-29T07:59:17;96817.41;;;25.13
71640;BMP280;60912;48.968;10.124;2023-05-29T08:01:43;96812.19;;;25.41
71640;BMP280;60912;48.968;10.124;2023-05-29T08:04:09;96821.38;;;25.79
71640;BMP280;60912;48.968;10.124;2023-05-29T08:06:34;96826.84;;;25.55
71640;BMP280;60912;48.968;10.124;2023-05-29T08:09:00;96823.66;;;25.65
71640;BMP280;60912;48.968;10.124;2023-05-29T08:11:25;96817.09;;;25.78
71640;BMP280;60912;48.968;10.124;2023-05-29T08:13:51;96828.84;;;25.90
71640;BMP280;60912;48.968;10.124;2023-05-29T08:16:16;96814.19;;;26.13
71640;BMP280;60912;48.968;10.124;2023-05-29T08:18:42;96820.31;;;26.08
71640;BMP280;60912;48.968;10.124;2023-05-29T08:21:07;96819.16;;;25.95
71640;BMP280;60912;48.968;10.124;2023-05-29T08:23:34;96818.94;;;25.89
71640;BMP280;60912;48.968;10.124;2023-05-29T08:26:00;96814.59;;;25.86
71640;BMP280;60912;48.968;10.124;2023-05-29T08:28:27;96810.69;;;25.95
71640;BMP280;60912;48.968;10.124;2023-05-29T08:30:53;96820.81;;;26.02
71640;BMP280;60912;48.968;10.124;2023-05-29T08:33:18;96817.91;;;25.80
71640;BMP280;60912;48.968;10.124;2023-05-29T08:35:44;96813.41;;;25.73
71640;BMP280;60912;48.968;10.124;2023-05-29T08:38:09;96813.06;;;25.46
71640;BMP280;60912;48.968;10.124;2023-05-29T08:40:35;96816.63;;;25.28
71640;BMP280;60912;48.968;10.124;2023-05-29T08:43:08;96809.06;;;24.98
71640;BMP280;60912;48.968;10.124;2023-05-29T08:45:38;96816.22;;;25.18
71640;BMP280;60912;48.968;10.124;2023-05-29T08:48:06;96819.53;;;25.30
71640;BMP280;60912;48.968;10.124;2023-05-29T08:50:34;96816.41;;;25.22
71640;BMP280;60912;48.968;10.124;2023-05-29T08:53:00;96810.69;;;24.85
71640;BMP280;60912;48.968;10.124;2023-05-29T08:55:25;96823.41;;;25.21
71640;BMP280;60912;48.968;10.124;2023-05-29T08:57:51;96820.09;;;25.27
71640;BMP280;60912;48.968;10.124;2023-05-29T09:00:17;96819.53;;;25.85
71640;BMP280;60912;48.968;10.124;2023-05-29T09:02:45;96809.13;;;25.35
71640;BMP280;60912;48.968;10.124;2023-05-29T09:05:11;96824.75;;;25.56
71640;BMP280;60912;48.968;10.124;2023-05-29T09:07:38;96818.00;;;25.27
71640;BMP280;60912;48.968;10.124;2023-05-29T09:10:08;96819.88;;;25.76
71640;BMP280;60912;48.968;10.124;2023-05-29T09:12:34;96820.06;;;26.19
71640;BMP280;60912;48.968;10.124;2023-05-29T09:14:59;96823.00;;;26.23
71640;BMP280;60912;48.968;10.124;2023-05-29T09:17:30;96818.88;;;25.87
71640;BMP280;60912;48.968;10.124;2023-05-29T09:19:56;96816.06;;;25.50
71640;BMP280;60912;48.968;10.124;2023-05-29T09:22:22;96820.84;;;25.65
71640;BMP280;60912;48.968;10.124;2023-05-29T09:24:48;96819.53;;;25.85
71640;BMP280;60912;48.968;10.124;2023-05-29T09:27:14;96819.53;;;26.05
71640;BMP280;60912;48.968;10.124;2023-05-29T09:29:41;96819.41;;;26.62
71640;BMP280;60912;48.968;10.124;2023-05-29T09:32:15;96825.97;;;26.47
71640;BMP280;60912;48.968;10.124;2023-05-29T09:34:42;96836.91;;;25.97
71640;BMP280;60912;48.968;10.124;2023-05-29T09:37:09;96822.66;;;25.56
71640;BMP280;60912;48.968;10.124;2023-05-29T09:42:08;96834.19;;;25.99
71640;BMP280;60912;48.968;10.124;2023-05-29T09:44:34;96839.09;;;25.99
71640;BMP280;60912;48.968;10.124;2023-05-29T09:46:59;96839.06;;;25.79
71640;BMP280;60912;48.968;10.124;2023-05-29T09:49:26;96831.09;;;25.74
71640;BMP280;60912;48.968;10.124;2023-05-29T09:51:56;96832.00;;;25.98
71640;BMP280;60912;48.968;10.124;2023-05-29T09:54:21;96835.81;;;26.26
71640;BMP280;60912;48.968;10.124;2023-05-29T09:56:47;96834.50;;;26.29
71640;BMP280;60912;48.968;10.124;2023-05-29T09:59:14;96844.28;;;25.87
71640;BMP280;60912;48.968;10.124;2023-05-29T10:01:42;96833.72;;;25.87
71640;BMP280;60912;48.968;10.124;2023-05-29T10:04:08;96837.00;;;26.19
71640;BMP280;60912;48.968;10.124;2023-05-29T10:06:38;96834.50;;;26.29
71640;BMP280;60912;48.968;10.124;2023-05-29T10:09:08;96823.16;;;25.88
71640;BMP280;60912;48.968;10.124;2023-05-29T10:11:43;96822.38;;;25.68
71640;BMP280;60912;48.968;10.124;2023-05-29T10:14:14;96827.25;;;25.48
71640;BMP280;60912;48.968;10.124;2023-05-29T10:16:43;96826.31;;;25.23
71640;BMP280;60912;48.968;10.124;2023-05-29T10:19:13;96819.75;;;25.36
71640;BMP280;60912;48.968;10.124;2023-05-29T10:21:41;96818.13;;;25.86
71640;BMP280;60912;48.968;10.124;2023-05-29T10:24:07;96824.50;;;26.46
71640;BMP280;60912;48.968;10.124;2023-05-29T10:26:40;96829.53;;;26.08
71640;BMP280;60912;48.968;10.124;2023-05-29T10:32:02;96814.72;;;26.29
71640;BMP280;60912;48.968;10.124;2023-05-29T10:37:42;96804.00;;;26.45
71640;BMP280;60912;48.968;10.124;2023-05-29T10:40:11;96815.06;;;26.81
71640;BMP280;60912;48.968;10.124;2023-05-29T10:42:47;96815.00;;;26.57
71640;BMP280;60912;48.968;10.124;2023-05-29T10:47:53;96811.13;;;26.07
71640;BMP280;60912;48.968;10.124;2023-05-29T10:53:00;96804.63;;;26.63
71640;BMP280;60912;48.968;10.124;2023-05-29T10:55:34;96805.19;;;26.38
71640;BMP280;60912;48.968;10.124;2023-05-29T10:58:04;96808.22;;;25.85
71640;BMP280;60912;48.968;10.124;2023-05-29T11:00:30;96800.84;;;26.35
71640;BMP280;60912;48.968;10.124;2023-05-29T11:02:56;96803.44;;;26.71
71640;BMP280;60912;48.968;10.124;2023-05-29T11:05:22;96815.59;;;26.14
71640;BMP280;60912;48.968;10.124;2023-05-29T11:07:59;96813.16;;;26.04
71640;BMP280;60912;48.968;10.124;2023-05-29T11:11:05;96821.09;;;25.71
71640;BMP280;60912;48.968;10.124;2023-05-29T11:13:35;96805.03;;;25.95
71640;BMP280;60912;48.968;10.124;2023-05-29T11:18:41;96806.72;;;26.63
71640;BMP280;60912;48.968;10.124;2023-05-29T11:23:47;96807.88;;;26.78
71640;BMP280;60912;48.968;10.124;2023-05-29T11:26:13;96805.72;;;26.54
71640;BMP280;60912;48.968;10.124;2023-05-29T11:28:39;96806.88;;;26.89
71640;BMP280;60912;48.968;10.124;2023-05-29T11:31:08;96806.00;;;27.06
71640;BMP280;60912;48.968;10.124;2023-05-29T11:33:36;96813.78;;;27.29
71640;BMP280;60912;48.968;10.124;2023-05-29T11:36:04;96798.13;;;26.39
71640;BMP280;60912;48.968;10.124;2023-05-29T11:38:30;96796.75;;;26.40
71640;BMP280;60912;48.968;10.124;2023-05-29T11:40:56;96801.53;;;26.36
71640;BMP280;60912;48.968;10.124;2023-05-29T11:43:24;96801.44;;;26.12
71640;BMP280;60912;48.968;10.124;2023-05-29T11:45:50;96785.03;;;26.28
71640;BMP280;60912;48.968;10.124;2023-05-29T11:48:15;96789.22;;;26.68
71640;BMP280;60912;48.968;10.124;2023-05-29T11:50:40;96795.69;;;26.10
71640;BMP280;60912;48.968;10.124;2023-05-29T11:53:07;96796.03;;;25.81
71640;BMP280;60912;48.968;10.124;2023-05-29T11:55:33;96792.03;;;26.25
71640;BMP280;60912;48.968;10.124;2023-05-29T11:58:00;96791.97;;;26.66
71640;BMP280;60912;48.968;10.124;2023-05-29T12:00:30;96795.66;;;26.71
71640;BMP280;60912;48.968;10.124;2023-05-29T12:02:58;96795.03;;;26.51
71640;BMP280;60912;48.968;10.124;2023-05-29T12:05:23;96803.84;;;26.41
71640;BMP280;60912;48.968;10.124;2023-05-29T12:07:54;96803.41;;;26.29
71640;BMP280;60912;48.968;10.124;2023-05-29T12:10:22;96798.34;;;26.45
71640;BMP280;60912;48.968;10.124;2023-05-29T12:12:55;96795.44;;;26.43
71640;BMP280;60912;48.968;10.124;2023-05-29T12:15:21;96787.56;;;26.61
71640;BMP280;60912;48.968;10.124;2023-05-29T12:17:48;96792.91;;;26.95
71640;BMP280;60912;48.968;10.124;2023-05-29T12:20:14;96793.66;;;26.74
71640;BMP280;60912;48.968;10.124;2023-05-29T12:22:41;96799.31;;;26.32
71640;BMP280;60912;48.968;10.124;2023-05-29T12:25:11;96811.75;;;26.45
71640;BMP280;60912;48.968;10.124;2023-05-29T12:27:40;96797.13;;;26.50
71640;BMP280;60912;48.968;10.124;2023-05-29T12:32:44;96790.81;;;26.74
71640;BMP280;60912;48.968;10.124;2023-05-29T12:35:14;96794.28;;;26.94
71640;BMP280;60912;48.968;10.124;2023-05-29T12:37:53;96784.94;;;27.34
71640;BMP280;60912;48.968;10.124;2023-05-29T12:40:23;96777.97;;;27.38
71640;BMP280;60912;48.968;10.124;2023-05-29T12:42:56;96787.84;;;27.37
71640;BMP280;60912;48.968;10.124;2023-05-29T12:45:24;96790.47;;;27.07
71640;BMP280;60912;48.968;10.124;2023-05-29T12:55:24;96792.69;;;26.45
71640;BMP280;60912;48.968;10.124;2023-05-29T12:57:50;96784.94;;;26.46
71640;BMP280;60912;48.968;10.124;2023-05-29T13:00:16;96794.28;;;26.94
71640;BMP280;60912;48.968;10.124;2023-05-29T13:02:42;96783.81;;;25.94
71640;BMP280;60912;48.968;10.124;2023-05-29T13:05:08;96774.59;;;26.33
71640;BMP280;60912;48.968;10.124;2023-05-29T13:07:33;96773.03;;;26.71
71640;BMP280;60912;48.968;10.124;2023-05-29T13:09:59;96774.03;;;26.80
71640;BMP280;60912;48.968;10.124;2023-05-29T13:12:25;96781.84;;;26.81
71640;BMP280;60912;48.968;10.124;2023-05-29T13:14:50;96759.31;;;26.83
71640;BMP280;60912;48.968;10.124;2023-05-29T13:17:16;96763.78;;;26.90
71640;BMP280;60912;48.968;10.124;2023-05-29T13:19:41;96756.38;;;27.03
71640;BMP280;60912;48.968;10.124;2023-05-29T13:22:07;96762.88;;;26.84
71640;BMP280;60912;48.968;10.124;2023-05-29T13:24:35;96755.41;;;26.94
71640;BMP280;60912;48.968;10.124;2023-05-29T13:27:00;96769.47;;;27.14
71640;BMP280;60912;48.968;10.124;2023-05-29T13:29:26;96757.63;;;27.43
71640;BMP280;60912;48.968;10.124;2023-05-29T13:31:51;96770.22;;;27.16
71640;BMP280;60912;48.968;10.124;2023-05-29T13:34:17;96774.47;;;27.15
71640;BMP280;60912;48.968;10.124;2023-05-29T13:36:42;96766.88;;;26.98
71640;BMP280;60912;48.968;10.124;2023-05-29T13:39:10;96760.38;;;27.17
71640;BMP280;60912;48.968;10.124;2023-05-29T13:41:35;96752.06;;;27.23
71640;BMP280;60912;48.968;10.124;2023-05-29T13:44:00;96744.72;;;27.38
71640;BMP280;60912;48.968;10.124;2023-05-29T13:46:26;96739.06;;;27.38
71640;BMP280;60912;48.968;10.124;2023-05-29T13:48:52;96740.72;;;27.47
71640;BMP280;60912;48.968;10.124;2023-05-29T13:51:17;96745.13;;;27.52
71640;BMP280;60912;48.968;10.124;2023-05-29T13:53:43;96747.84;;;27.48
71640;BMP280;60912;48.968;10.124;2023-05-29T13:56:08;96754.47;;;27.33
71640;BMP280;60912;48.968;10.124;2023-05-29T13:58:33;96740.53;;;27.39
71640;BMP280;60912;48.968;10.124;2023-05-29T14:00:59;96739.00;;;27.36
71640;BMP280;60912;48.968;10.124;2023-05-29T14:03:24;96740.13;;;27.27
71640;BMP280;60912;48.968;10.124;2023-05-29T14:05:54;96732.31;;;27.25
71640;BMP280;60912;48.968;10.124;2023-05-29T14:08:19;96725.09;;;27.20
71640;BMP280;60912;48.968;10.124;2023-05-29T14:10:45;96720.91;;;27.21
71640;BMP280;60912;48.968;10.124;2023-05-29T14:13:10;96731.34;;;27.17
71640;BMP280;60912;48.968;10.124;2023-05-29T14:15:36;96728.38;;;26.89
71640;BMP280;60912;48.968;10.124;2023-05-29T14:18:02;96724.88;;;26.91
71640;BMP280;60912;48.968;10.124;2023-05-29T14:20:27;96730.50;;;26.67
71640;BMP280;60912;48.968;10.124;2023-05-29T14:22:54;96722.78;;;26.91
71640;BMP280;60912;48.968;10.124;2023-05-29T14:25:20;96722.13;;;26.93
71640;BMP280;60912;48.968;10.124;2023-05-29T14:27:46;96715.94;;;27.22
71640;BMP280;60912;48.968;10.124;2023-05-29T14:30:11;96718.94;;;27.28
71640;BMP280;60912;48.968;10.124;2023-05-29T14:32:36;96715.44;;;27.29